Ellendale, Tennessee
Current Conditions -  °F | °C
As of 7:55 AM on Saturday 22 Nov 2014 (Local Time) from KNQA Reporting Station
Broken Clouds Broken Clouds  
Wind Chill: 54°   Ceiling: 15000
Heat Index: 54°   Visibility: 10mi
Dew Point: 46°   Wind: 7mph
Humidity: 77%   Direction: 150°SSE
Pressure: 30.26"   Gusts: NA
Location:  35.23°N, 89.83°W
Report Text: KNQA 221355Z 15006KT 10SM SCT050 BKN150 12/08 A3026
Loading
Personal Weather Stations






























Interactive Weather Map New forecast layout! Learn more

10-Day Weather Forecast

Advertisements
Track Severe Weather on mobile